Time;durP1;ratioP1;P1;durP2;ratioP2;P2;SDS_P1;SDS_P2;PMS_P1;PMS_P2;Temp;Humidity;BMP_temperature;BMP_pressure;BME280_temperature;BME280_humidity;BME280_pressure;Samples;Min_cycle;Max_cycle;Signal;HPM_P1;HPM_P2
2021/03/31 00:02:00;;;;;;;13.93;7.93;;;7.90;77.00;;;;;;5065782;28;20040;-65
2021/03/31 00:04:26;;;;;;;15.43;7.70;;;7.80;77.00;;;;;;5068924;28;20063;-67
2021/03/31 00:06:51;;;;;;;14.70;7.37;;;7.80;77.10;;;;;;5065046;28;20086;-67
2021/03/31 00:09:17;;;;;;;13.30;7.20;;;7.80;77.00;;;;;;5064669;28;20039;-68
2021/03/31 00:11:43;;;;;;;15.50;7.37;;;7.80;77.00;;;;;;5072312;28;20044;-66
2021/03/31 00:14:10;;;;;;;14.00;7.20;;;7.70;77.10;;;;;;5072767;28;20094;-67
2021/03/31 00:16:36;;;;;;;16.30;7.13;;;7.60;77.10;;;;;;5072649;28;20063;-67
2021/03/31 00:19:02;;;;;;;14.90;7.40;;;7.50;77.20;;;;;;5072180;28;20025;-66
2021/03/31 00:21:27;;;;;;;13.30;7.67;;;7.50;77.40;;;;;;5072172;28;20408;-66
2021/03/31 00:23:53;;;;;;;14.33;8.30;;;7.40;77.60;;;;;;5072244;28;20043;-66
2021/03/31 00:26:19;;;;;;;15.53;8.07;;;7.40;78.00;;;;;;5072578;28;20033;-66
2021/03/31 00:28:46;;;;;;;17.37;8.37;;;7.30;78.50;;;;;;5048567;28;20033;-68
2021/03/31 00:31:11;;;;;;;14.97;8.00;;;7.30;78.10;;;;;;5031121;28;20129;-67
2021/03/31 00:33:37;;;;;;;15.23;8.27;;;7.30;78.30;;;;;;5063026;28;20115;-66
2021/03/31 00:36:04;;;;;;;14.80;8.87;;;7.30;78.40;;;;;;5060346;28;20033;-66
2021/03/31 00:38:29;;;;;;;13.97;8.07;;;7.20;78.70;;;;;;5065676;28;20107;-66
2021/03/31 00:40:55;;;;;;;15.30;8.53;;;7.20;78.80;;;;;;5063656;28;20051;-67
2021/03/31 00:43:22;;;;;;;17.57;8.67;;;7.10;78.90;;;;;;5071584;28;20411;-67
2021/03/31 00:45:49;;;;;;;14.10;8.83;;;7.10;79.30;;;;;;5071894;28;20120;-68
2021/03/31 00:48:16;;;;;;;19.30;10.27;;;7.10;79.60;;;;;;5069211;28;20047;-67
2021/03/31 00:50:56;;;;;;;14.57;9.27;;;7.10;79.70;;;;;;5061109;28;20039;-66
2021/03/31 00:53:49;;;;;;;17.83;9.67;;;7.20;79.70;;;;;;5053513;28;20039;-67
2021/03/31 00:56:15;;;;;;;16.37;8.27;;;7.20;79.50;;;;;;5068644;28;20036;-67
2021/03/31 00:58:42;;;;;;;20.50;8.93;;;7.20;79.60;;;;;;5071849;28;20028;-66
2021/03/31 01:01:09;;;;;;;15.43;9.17;;;7.20;79.40;;;;;;5053760;28;20049;-66
2021/03/31 01:03:34;;;;;;;16.27;8.80;;;7.10;79.30;;;;;;5071519;28;20032;-67
2021/03/31 01:06:00;;;;;;;15.77;8.60;;;7.10;79.40;;;;;;5071860;28;20035;-67
2021/03/31 01:08:26;;;;;;;12.17;8.00;;;7.00;79.40;;;;;;5071333;28;20424;-66
2021/03/31 01:10:57;;;;;;;16.23;8.70;;;7.00;79.50;;;;;;5071361;28;20034;-66
2021/03/31 01:13:45;;;;;;;15.57;8.67;;;7.00;79.60;;;;;;5071219;28;20811;-66
2021/03/31 01:16:16;;;;;;;17.47;9.00;;;6.90;79.70;;;;;;5071651;28;20089;-66
2021/03/31 01:18:50;;;;;;;;;;;6.90;79.70;;;;;;5053702;28;20063;-66
2021/03/31 01:21:44;;;;;;;17.83;9.50;;;6.80;79.80;;;;;;5071220;28;19916;-66
2021/03/31 01:24:44;;;;;;;16.43;8.40;;;6.70;80.10;;;;;;5053194;28;20123;-66
2021/03/31 01:27:43;;;;;;;16.27;8.80;;;6.70;80.40;;;;;;5070936;28;20480;-67
2021/03/31 01:30:36;;;;;;;16.57;9.50;;;6.60;80.40;;;;;;5070652;28;20107;-67
2021/03/31 01:33:21;;;;;;;18.27;9.57;;;6.50;80.50;;;;;;5039929;28;20032;-67
2021/03/31 01:35:46;;;;;;;15.60;8.50;;;6.50;80.70;;;;;;5060428;28;20056;-67
2021/03/31 01:38:15;;;;;;;16.43;9.20;;;6.50;80.80;;;;;;5042641;28;20468;-68
2021/03/31 01:40:48;;;;;;;18.17;9.97;;;6.40;80.80;;;;;;5044915;28;20124;-66
2021/03/31 01:43:18;;;;;;;16.07;9.63;;;6.40;80.90;;;;;;5070850;28;20524;-66
2021/03/31 01:45:48;;;;;;;16.47;9.27;;;6.40;81.00;;;;;;5065562;28;20048;-67
2021/03/31 01:48:20;;;;;;;16.20;9.32;;;6.40;81.00;;;;;;5048055;28;20051;-68
2021/03/31 01:50:56;;;;;;;16.03;8.90;;;6.30;81.10;;;;;;5073871;28;20488;-65
2021/03/31 01:53:23;;;;;;;16.90;9.90;;;6.30;81.10;;;;;;5074154;28;20041;-66
2021/03/31 01:55:51;;;;;;;17.27;9.67;;;6.30;81.20;;;;;;5071793;28;20499;-66
2021/03/31 01:58:19;;;;;;;16.77;9.83;;;6.20;81.20;;;;;;5071117;28;20457;-67
2021/03/31 02:00:45;;;;;;;16.63;9.53;;;6.20;81.50;;;;;;5070420;28;20055;-65
2021/03/31 02:03:15;;;;;;;17.53;9.40;;;6.20;81.60;;;;;;5072410;28;20036;-65
2021/03/31 02:05:41;;;;;;;16.03;9.97;;;6.10;81.80;;;;;;5077226;28;20032;-67
2021/03/31 02:08:08;;;;;;;19.33;10.53;;;6.10;82.00;;;;;;5077748;28;20617;-66
2021/03/31 02:10:34;;;;;;;15.43;9.53;;;6.10;82.10;;;;;;5077159;28;20036;-68
2021/03/31 02:13:03;;;;;;;16.23;9.50;;;6.10;82.00;;;;;;5059521;28;20079;-66
2021/03/31 02:15:30;;;;;;;18.10;9.70;;;6.10;82.00;;;;;;5077621;28;20124;-65
2021/03/31 02:18:00;;;;;;;18.30;10.10;;;6.10;82.00;;;;;;5077482;28;20032;-66
2021/03/31 02:20:26;;;;;;;15.37;8.90;;;6.00;82.00;;;;;;5077680;28;20036;-66
2021/03/31 02:22:53;;;;;;;18.00;9.80;;;6.00;82.20;;;;;;5078027;28;20040;-69
2021/03/31 02:25:19;;;;;;;20.40;10.00;;;6.00;82.30;;;;;;5078227;28;20115;-66
2021/03/31 02:27:46;;;;;;;15.83;9.37;;;6.00;82.30;;;;;;5077384;28;20441;-66
2021/03/31 02:30:15;;;;;;;17.47;9.73;;;6.00;82.30;;;;;;5058787;28;20047;-66
2021/03/31 02:32:44;;;;;;;17.73;9.57;;;5.90;82.30;;;;;;5077241;28;20029;-66
2021/03/31 02:35:10;;;;;;;19.27;9.90;;;5.80;82.20;;;;;;5047475;28;20036;-67
2021/03/31 02:37:39;;;;;;;21.50;10.77;;;5.80;82.40;;;;;;5059587;28;20033;-67
2021/03/31 02:40:07;;;;;;;20.50;9.63;;;5.80;82.50;;;;;;5068321;28;20094;-67
2021/03/31 02:42:33;;;;;;;15.57;9.43;;;5.80;82.60;;;;;;5073913;28;20119;-66
2021/03/31 02:45:01;;;;;;;18.70;10.47;;;5.70;82.60;;;;;;5035303;28;20033;-66
2021/03/31 02:47:31;;;;;;;19.83;10.07;;;5.70;82.70;;;;;;5107988;22;20040;-66
2021/03/31 02:49:59;;;;;;;16.53;9.63;;;5.70;82.80;;;;;;5081391;28;20039;-66
2021/03/31 02:52:27;;;;;;;19.33;10.30;;;5.60;82.90;;;;;;5071118;28;20066;-66
2021/03/31 02:54:54;;;;;;;16.93;9.97;;;5.60;82.90;;;;;;5059299;28;20040;-66
2021/03/31 02:57:20;;;;;;;17.57;9.70;;;5.60;83.20;;;;;;5070020;28;20036;-66
2021/03/31 02:59:47;;;;;;;17.40;10.27;;;5.60;83.20;;;;;;5077424;28;20055;-66
2021/03/31 03:02:15;;;;;;;15.93;10.23;;;5.60;83.10;;;;;;5097007;28;20058;-65
2021/03/31 03:04:44;;;;;;;16.30;9.43;;;5.60;83.10;;;;;;5097009;28;20063;-66
2021/03/31 03:07:10;;;;;;;18.27;10.03;;;5.50;83.10;;;;;;5094862;28;20089;-66
2021/03/31 03:09:36;;;;;;;20.13;10.37;;;5.50;83.30;;;;;;5070860;28;20040;-66
2021/03/31 03:12:02;;;;;;;16.97;10.63;;;5.50;83.40;;;;;;5096261;28;20038;-66
2021/03/31 03:14:29;;;;;;;19.23;10.50;;;5.40;83.50;;;;;;5079101;28;20514;-69
2021/03/31 03:16:55;;;;;;;16.90;9.70;;;5.40;84.10;;;;;;5093581;28;20040;-66
2021/03/31 03:19:21;;;;;;;16.53;9.57;;;5.40;83.70;;;;;;5094358;28;20036;-64
2021/03/31 03:21:48;;;;;;;21.40;10.43;;;5.40;83.70;;;;;;5076056;28;20032;-64
2021/03/31 03:24:15;;;;;;;18.90;10.57;;;5.40;83.80;;;;;;5063790;28;20063;-64
2021/03/31 03:26:41;;;;;;;16.90;10.60;;;5.30;83.90;;;;;;5085552;28;20118;-64
2021/03/31 03:29:08;;;;;;;19.67;10.70;;;5.30;83.90;;;;;;5061978;28;20045;-64
2021/03/31 03:31:36;;;;;;;20.70;11.60;;;5.20;84.00;;;;;;5082614;28;20081;-64
2021/03/31 03:34:02;;;;;;;20.30;11.67;;;5.30;84.30;;;;;;5087103;28;20043;-64
2021/03/31 03:36:28;;;;;;;18.47;11.30;;;5.30;84.20;;;;;;5081233;28;20041;-64
2021/03/31 03:38:54;;;;;;;18.13;10.87;;;5.30;84.10;;;;;;5041031;28;20047;-64
2021/03/31 03:41:20;;;;;;;18.63;10.50;;;5.30;84.10;;;;;;5085171;28;20044;-64
2021/03/31 03:43:46;;;;;;;18.43;10.90;;;5.20;84.10;;;;;;5047270;28;20418;-64
2021/03/31 03:46:13;;;;;;;21.47;11.10;;;5.20;84.10;;;;;;5069597;28;20028;-64
2021/03/31 03:48:39;;;;;;;20.73;11.90;;;5.20;84.30;;;;;;5084451;28;20032;-71
2021/03/31 03:51:09;;;;;;;19.47;11.60;;;5.20;84.50;;;;;;5086410;28;20090;-71
2021/03/31 03:53:36;;;;;;;18.58;10.05;;;5.10;84.40;;;;;;5093255;28;20059;-69
2021/03/31 03:56:08;;;;;;;19.37;11.00;;;5.10;84.30;;;;;;5093733;28;20032;-71
2021/03/31 03:58:33;;;;;;;17.73;10.73;;;5.10;84.40;;;;;;5059453;28;20062;-65
2021/03/31 04:00:59;;;;;;;19.97;10.80;;;5.10;84.60;;;;;;5083991;28;20047;-65
2021/03/31 04:03:25;;;;;;;19.97;10.97;;;5.10;84.60;;;;;;5076487;28;20404;-65
2021/03/31 04:05:51;;;;;;;18.63;10.70;;;5.10;84.50;;;;;;5090547;28;20052;-64
2021/03/31 04:08:16;;;;;;;17.37;9.63;;;5.10;84.50;;;;;;5093686;28;20063;-64
2021/03/31 04:10:46;;;;;;;17.23;10.07;;;5.00;84.50;;;;;;5072935;28;20056;-69
2021/03/31 04:13:12;;;;;;;17.50;9.97;;;5.00;84.50;;;;;;5086298;28;20050;-68
2021/03/31 04:15:39;;;;;;;16.13;10.27;;;4.90;84.70;;;;;;5083661;28;20040;-65
2021/03/31 04:18:06;;;;;;;19.40;10.73;;;4.90;85.00;;;;;;5085831;28;20165;-64
2021/03/31 04:20:32;;;;;;;20.47;11.00;;;4.90;85.10;;;;;;5050990;28;20503;-64
2021/03/31 04:22:58;;;;;;;17.83;10.30;;;4.90;85.20;;;;;;5072476;28;20584;-66
2021/03/31 04:25:25;;;;;;;16.47;10.27;;;4.80;85.10;;;;;;5066299;28;20048;-67
2021/03/31 04:27:53;;;;;;;19.13;10.30;;;4.80;85.30;;;;;;5075634;28;20369;-67
2021/03/31 04:30:21;;;;;;;18.97;10.90;;;4.80;85.20;;;;;;5083039;28;20046;-66
2021/03/31 04:32:49;;;;;;;20.87;11.23;;;4.80;85.20;;;;;;5057007;28;20040;-66
2021/03/31 04:35:17;;;;;;;19.63;11.23;;;4.80;85.50;;;;;;5063527;28;20071;-66
2021/03/31 04:37:43;;;;;;;20.97;10.90;;;4.80;85.60;;;;;;5075638;28;20037;-66
2021/03/31 04:40:12;;;;;;;20.40;11.80;;;4.80;85.60;;;;;;5062033;28;20041;-70
2021/03/31 04:42:39;;;;;;;18.90;11.37;;;4.80;85.50;;;;;;5088838;28;20039;-71
2021/03/31 04:45:10;;;;;;;21.07;11.63;;;4.80;85.50;;;;;;5092603;28;20274;-71
2021/03/31 04:47:37;;;;;;;22.37;11.03;;;4.80;85.60;;;;;;5073731;28;20548;-69
2021/03/31 04:50:07;;;;;;;19.73;11.20;;;4.80;85.50;;;;;;5092439;28;20433;-71
2021/03/31 04:52:33;;;;;;;18.05;10.93;;;4.80;85.60;;;;;;5092503;28;20036;-66
2021/03/31 04:55:00;;;;;;;20.03;11.63;;;4.70;85.80;;;;;;5091632;28;20551;-66
2021/03/31 04:57:25;;;;;;;18.73;11.13;;;4.70;85.80;;;;;;5092338;28;20043;-70
2021/03/31 04:59:51;;;;;;;21.93;12.73;;;4.70;85.90;;;;;;5073678;28;20403;-69
2021/03/31 05:02:17;;;;;;;18.37;11.17;;;4.70;86.10;;;;;;5092046;28;20043;-64
2021/03/31 05:04:42;;;;;;;20.13;11.33;;;4.80;86.30;;;;;;5091817;28;20063;-64
2021/03/31 05:07:08;;;;;;;22.93;11.87;;;4.80;86.30;;;;;;5091076;28;20441;-64
2021/03/31 05:09:33;;;;;;;19.93;11.30;;;4.80;86.30;;;;;;5074038;28;20047;-64
2021/03/31 05:12:00;;;;;;;17.83;10.87;;;4.80;86.30;;;;;;5090730;28;20538;-64
2021/03/31 05:14:26;;;;;;;21.63;11.90;;;4.80;86.30;;;;;;5091997;28;20040;-64
2021/03/31 05:16:52;;;;;;;19.30;11.20;;;4.90;86.60;;;;;;5091573;28;20036;-64
2021/03/31 05:19:17;;;;;;;19.10;10.63;;;4.90;86.80;;;;;;5091313;28;20046;-64
2021/03/31 05:21:43;;;;;;;21.23;11.63;;;5.00;86.80;;;;;;5091456;28;20142;-64
2021/03/31 05:24:09;;;;;;;20.23;11.43;;;5.00;86.90;;;;;;5091316;28;20040;-65
2021/03/31 05:26:35;;;;;;;19.13;10.60;;;5.10;87.10;;;;;;5091444;28;20411;-64
2021/03/31 05:29:01;;;;;;;16.13;10.40;;;5.20;87.30;;;;;;5091471;28;20039;-64
2021/03/31 05:31:26;;;;;;;20.03;10.60;;;5.20;87.40;;;;;;5090337;28;20040;-64
2021/03/31 05:33:52;;;;;;;20.87;9.90;;;5.30;87.50;;;;;;5090965;28;20036;-64
2021/03/31 05:36:17;;;;;;;17.63;9.63;;;5.40;87.60;;;;;;5101666;28;20058;-64
2021/03/31 05:38:43;;;;;;;20.03;10.20;;;5.50;87.60;;;;;;5095201;28;20039;-64
2021/03/31 05:41:10;;;;;;;18.77;10.20;;;5.60;87.80;;;;;;5092344;28;20538;-64
2021/03/31 05:43:36;;;;;;;16.70;10.00;;;5.60;88.00;;;;;;5091279;28;20032;-64
2021/03/31 05:46:02;;;;;;;14.50;8.70;;;5.70;88.30;;;;;;5091392;28;20047;-65
2021/03/31 05:48:28;;;;;;;16.43;10.13;;;5.80;88.10;;;;;;5073459;28;20408;-66
2021/03/31 05:50:54;;;;;;;17.40;10.33;;;5.90;88.20;;;;;;5090669;28;20044;-64
2021/03/31 05:53:20;;;;;;;16.50;9.40;;;6.00;88.10;;;;;;5091368;28;20036;-67
2021/03/31 05:55:46;;;;;;;18.50;9.63;;;6.10;88.00;;;;;;5090650;28;20052;-67
2021/03/31 05:58:12;;;;;;;15.87;9.43;;;6.20;88.00;;;;;;5091497;28;20101;-67
2021/03/31 06:00:38;;;;;;;21.20;10.13;;;6.30;88.00;;;;;;5091142;28;20043;-66
2021/03/31 06:03:04;;;;;;;20.47;10.10;;;6.30;87.90;;;;;;5072623;28;20036;-67
2021/03/31 06:05:34;;;;;;;17.27;10.03;;;6.50;88.00;;;;;;5091036;28;20039;-66
2021/03/31 06:08:00;;;;;;;16.70;10.10;;;6.50;87.90;;;;;;5091135;28;20040;-67
2021/03/31 06:10:27;;;;;;;22.37;11.37;;;6.70;88.10;;;;;;5090452;28;20047;-67
2021/03/31 06:13:04;;;;;;;15.50;9.43;;;6.80;88.50;;;;;;5073069;28;20036;-67
2021/03/31 06:15:43;;;;;;;16.27;9.50;;;7.10;89.30;;;;;;5090792;28;20494;-67
2021/03/31 06:18:11;;;;;;;17.30;9.20;;;7.60;90.20;;;;;;5090916;28;20038;-67
2021/03/31 06:20:44;;;;;;;15.50;8.67;;;8.30;91.30;;;;;;5090045;28;20052;-67
2021/03/31 06:28:35;;;;;;;15.25;8.60;;;10.70;89.60;;;;;;5090750;28;20040;-66
2021/03/31 06:31:13;;;;;;;13.77;8.40;;;11.10;87.80;;;;;;5087157;28;20052;-67
2021/03/31 06:33:41;;;;;;;16.98;9.48;;;11.40;87.30;;;;;;5091152;28;20127;-67
2021/03/31 06:36:09;;;;;;;14.18;9.13;;;11.70;87.80;;;;;;5090236;28;20049;-67
2021/03/31 06:38:46;;;;;;;16.70;8.90;;;12.30;88.40;;;;;;5090969;28;20036;-67
2021/03/31 06:41:34;;;;;;;15.55;8.82;;;13.00;87.50;;;;;;5090033;28;20438;-67
2021/03/31 06:44:21;;;;;;;17.42;9.15;;;13.60;86.50;;;;;;5057325;28;20028;-67
2021/03/31 06:49:47;;;;;;;15.98;9.10;;;14.90;83.70;;;;;;5044697;28;20036;-66
2021/03/31 06:52:13;;;;;;;15.82;9.57;;;16.10;83.20;;;;;;5076254;28;20488;-66
2021/03/31 06:54:48;;;;;;;16.42;10.15;;;17.30;81.60;;;;;;5094058;28;20032;-66
2021/03/31 06:57:22;;;;;;;17.02;9.48;;;18.40;78.10;;;;;;5094242;28;20498;-67
2021/03/31 06:59:57;;;;;;;17.48;10.95;;;19.60;76.20;;;;;;5076969;28;20060;-67
2021/03/31 07:02:23;;;;;;;17.23;10.32;;;20.90;71.80;;;;;;5094006;28;20040;-68
2021/03/31 07:04:49;;;;;;;19.00;10.93;;;22.00;67.80;;;;;;5093788;28;20086;-68
2021/03/31 07:07:14;;;;;;;15.15;10.15;;;23.00;64.30;;;;;;5093941;28;20040;-68
2021/03/31 07:09:40;;;;;;;17.33;10.68;;;23.90;60.30;;;;;;5094195;28;20028;-69
2021/03/31 07:12:23;;;;;;;17.88;11.48;;;24.80;56.60;;;;;;5093357;28;20040;-69
2021/03/31 07:14:50;;;;;;;19.08;10.60;;;25.50;52.90;;;;;;5093958;28;20040;-69
2021/03/31 07:17:22;;;;;;;19.25;11.77;;;26.10;50.60;;;;;;5058491;28;20044;-69
2021/03/31 07:19:49;;;;;;;18.20;11.00;;;26.70;48.50;;;;;;5093768;28;20109;-70
2021/03/31 07:22:15;;;;;;;17.15;10.45;;;27.30;45.70;;;;;;5093118;28;20043;-69
2021/03/31 07:24:41;;;;;;;16.13;10.80;;;27.60;44.10;;;;;;5093861;28;20480;-68
2021/03/31 07:27:15;;;;;;;17.85;10.77;;;28.20;42.60;;;;;;5075651;28;20055;-68
2021/03/31 07:32:31;;;;;;;16.20;10.82;;;29.10;38.90;;;;;;5092732;28;20377;-68
2021/03/31 07:35:00;;;;;;;15.98;11.25;;;29.50;37.40;;;;;;5093619;28;20028;-68
2021/03/31 07:37:27;;;;;;;18.50;11.45;;;30.00;36.50;;;;;;5075379;28;20064;-68
2021/03/31 07:39:54;;;;;;;16.77;12.05;;;30.30;35.10;;;;;;5074919;28;20114;-68
2021/03/31 07:42:21;;;;;;;17.42;11.85;;;30.60;33.90;;;;;;5093091;28;20071;-68
2021/03/31 07:44:48;;;;;;;18.73;11.10;;;31.20;33.20;;;;;;5092653;28;20032;-68
2021/03/31 07:47:16;;;;;;;15.65;10.93;;;31.40;31.80;;;;;;5093126;28;20457;-68
2021/03/31 07:49:43;;;;;;;15.30;10.10;;;31.90;31.30;;;;;;5093206;28;20036;-68
2021/03/31 07:52:08;;;;;;;14.25;10.60;;;32.30;30.30;;;;;;5057915;28;20039;-68
2021/03/31 07:54:34;;;;;;;16.38;11.02;;;32.70;30.00;;;;;;5093246;28;20032;-69
2021/03/31 07:57:25;;;;;;;15.68;11.40;;;33.30;29.60;;;;;;5092608;28;20032;-69
2021/03/31 07:59:51;;;;;;;15.10;11.25;;;34.00;28.70;;;;;;5083311;28;20392;-69
2021/03/31 08:02:19;;;;;;;14.00;10.85;;;34.20;27.50;;;;;;5091637;28;20100;-69
2021/03/31 08:04:45;;;;;;;17.55;11.15;;;34.20;27.40;;;;;;5093003;28;20123;-69
2021/03/31 08:07:22;;;;;;;16.85;12.45;;;34.30;26.90;;;;;;5092431;28;20174;-69
2021/03/31 08:09:49;;;;;;;15.13;11.77;;;34.90;26.50;;;;;;5074534;28;20032;-69
2021/03/31 08:12:29;;;;;;;14.70;11.15;;;34.80;26.00;;;;;;5074190;28;20504;-71
2021/03/31 08:14:55;;;;;;;14.00;11.43;;;34.90;25.80;;;;;;5074853;28;20122;-70
2021/03/31 08:17:22;;;;;;;15.32;12.20;;;35.00;25.40;;;;;;5092128;28;20419;-69
2021/03/31 08:19:51;;;;;;;15.38;12.00;;;35.50;25.00;;;;;;5092904;28;20472;-72
2021/03/31 08:22:18;;;;;;;15.23;12.32;;;36.30;24.50;;;;;;5074282;28;20562;-69
2021/03/31 08:24:46;;;;;;;15.65;11.27;;;36.70;24.30;;;;;;5073717;28;20036;-69
2021/03/31 08:27:13;;;;;;;16.65;12.32;;;37.20;23.70;;;;;;5092479;28;20416;-70
2021/03/31 08:29:42;;;;;;;16.10;12.07;;;37.80;23.50;;;;;;5092038;28;20039;-70
2021/03/31 08:32:09;;;;;;;;;;;38.00;22.80;;;;;;5092712;28;20032;-70
2021/03/31 08:34:37;;;;;;;19.88;12.40;;;38.10;23.10;;;;;;5074249;28;19915;-70
2021/03/31 08:37:05;;;;;;;16.50;11.82;;;38.30;22.30;;;;;;5073956;28;20040;-70
2021/03/31 08:39:32;;;;;;;13.87;11.63;;;38.70;22.30;;;;;;5092220;28;20062;-70
2021/03/31 08:41:59;;;;;;;17.55;12.35;;;39.10;22.10;;;;;;5091367;28;20040;-70
2021/03/31 08:44:44;;;;;;;19.25;11.93;;;39.70;21.80;;;;;;5091808;28;20056;-70
2021/03/31 08:47:10;;;;;;;15.45;12.32;;;39.90;21.10;;;;;;5098474;22;20058;-67
2021/03/31 08:49:36;;;;;;;16.77;12.30;;;39.60;20.50;;;;;;5091916;28;20032;-67
2021/03/31 08:52:08;;;;;;;15.98;12.30;;;39.30;20.60;;;;;;5091549;28;20049;-67
2021/03/31 08:54:50;;;;;;;15.57;11.77;;;39.30;20.50;;;;;;5091942;28;20051;-67
2021/03/31 08:57:22;;;;;;;16.80;11.93;;;39.60;20.60;;;;;;5091354;28;20501;-69
2021/03/31 08:59:55;;;;;;;15.35;10.88;;;40.20;20.40;;;;;;5071443;28;20054;-69
2021/03/31 09:02:24;;;;;;;15.80;10.93;;;40.80;20.10;;;;;;5090402;28;20048;-67
2021/03/31 09:04:50;;;;;;;17.50;11.90;;;41.10;19.80;;;;;;5073463;28;20472;-66
2021/03/31 09:07:17;;;;;;;16.25;11.82;;;40.90;19.30;;;;;;5090892;28;20053;-66
2021/03/31 09:09:44;;;;;;;16.35;11.80;;;40.70;19.10;;;;;;5091485;28;20040;-67
2021/03/31 09:12:13;;;;;;;15.52;11.80;;;40.50;18.80;;;;;;5091043;28;20090;-68
2021/03/31 09:14:44;;;;;;;14.90;11.88;;;40.60;18.90;;;;;;5089963;28;20055;-69
2021/03/31 09:17:16;;;;;;;14.45;11.25;;;40.90;19.00;;;;;;5091309;28;20503;-69
2021/03/31 09:19:43;;;;;;;14.75;10.90;;;41.50;18.90;;;;;;5091014;28;20036;-67
2021/03/31 09:22:12;;;;;;;14.80;10.57;;;42.10;19.00;;;;;;5052924;28;20412;-67
2021/03/31 09:24:47;;;;;;;14.43;10.63;;;42.90;18.70;;;;;;5090635;28;20028;-67
2021/03/31 09:27:16;;;;;;;12.98;9.57;;;42.50;18.30;;;;;;5091282;28;20054;-67
2021/03/31 09:29:44;;;;;;;16.45;11.68;;;42.40;18.40;;;;;;5072325;28;20047;-67
2021/03/31 09:32:17;;;;;;;14.77;10.90;;;42.90;18.40;;;;;;5072847;28;20044;-67
2021/03/31 09:34:44;;;;;;;15.52;10.15;;;43.90;18.40;;;;;;5072980;28;20067;-67
2021/03/31 09:37:12;;;;;;;13.02;9.88;;;44.70;18.40;;;;;;5055531;28;20383;-68
2021/03/31 09:39:38;;;;;;;;;;;44.90;17.90;;;;;;5091457;28;20059;-68
2021/03/31 09:42:05;;;;;;;14.35;9.55;;;44.60;17.80;;;;;;5090308;28;19966;-68
2021/03/31 09:44:31;;;;;;;14.23;10.30;;;44.50;17.70;;;;;;5072900;28;20024;-68
2021/03/31 09:47:01;;;;;;;14.00;10.93;;;44.80;17.60;;;;;;5090313;28;20043;-68
2021/03/31 09:49:27;;;;;;;12.32;9.20;;;45.10;17.50;;;;;;5072524;28;20097;-68
2021/03/31 09:51:53;;;;;;;15.18;10.02;;;45.20;17.40;;;;;;5052493;28;20197;-68
2021/03/31 09:54:24;;;;;;;13.55;10.07;;;45.30;17.40;;;;;;5087588;28;20040;-68
2021/03/31 09:56:50;;;;;;;14.65;10.32;;;45.30;17.50;;;;;;5090795;28;20036;-68
2021/03/31 09:59:16;;;;;;;15.23;10.00;;;45.70;17.30;;;;;;5090377;28;20043;-68
2021/03/31 10:01:42;;;;;;;15.27;11.55;;;45.90;17.20;;;;;;5090344;28;20515;-68
2021/03/31 10:04:09;;;;;;;15.57;10.65;;;46.00;17.10;;;;;;5072708;28;20032;-68
2021/03/31 10:06:35;;;;;;;13.02;9.80;;;45.50;17.10;;;;;;5089990;28;20051;-68
2021/03/31 10:09:12;;;;;;;16.42;10.70;;;45.60;17.00;;;;;;5090779;28;20032;-68
2021/03/31 10:11:38;;;;;;;15.13;9.60;;;45.30;16.80;;;;;;5090401;28;20032;-68
2021/03/31 10:14:22;;;;;;;13.70;10.32;;;45.50;17.00;;;;;;5090806;28;20077;-68
2021/03/31 10:16:49;;;;;;;18.55;11.18;;;46.00;17.30;;;;;;5071994;28;20040;-69
2021/03/31 10:19:16;;;;;;;19.15;11.32;;;46.70;17.10;;;;;;5072341;28;20483;-68
2021/03/31 10:21:42;;;;;;;15.30;9.88;;;47.10;17.00;;;;;;5088153;28;20036;-68
2021/03/31 10:24:11;;;;;;;14.50;11.07;;;47.20;17.00;;;;;;5055264;28;20028;-68
2021/03/31 10:26:38;;;;;;;15.27;10.93;;;47.60;17.00;;;;;;5094313;28;20032;-67
2021/03/31 10:29:19;;;;;;;15.48;10.27;;;48.00;16.70;;;;;;5092042;28;20028;-66
2021/03/31 10:31:47;;;;;;;14.65;10.63;;;48.10;16.90;;;;;;5073755;28;20044;-65
2021/03/31 10:34:14;;;;;;;16.85;10.35;;;48.00;16.70;;;;;;5092767;28;20046;-66
2021/03/31 10:48:17;;;;;;;14.75;9.63;;;46.70;16.50;;;;;;5092039;28;20040;-68
2021/03/31 10:53:43;;;;;;;14.52;9.93;;;46.50;16.60;;;;;;5092893;28;20036;-67
2021/03/31 10:56:10;;;;;;;14.77;10.02;;;46.60;16.50;;;;;;5092835;28;20453;-65
2021/03/31 10:58:36;;;;;;;12.70;8.93;;;46.10;16.30;;;;;;5074284;28;20498;-65
2021/03/31 11:01:03;;;;;;;16.02;10.15;;;45.10;16.20;;;;;;5092576;28;20032;-65
2021/03/31 11:03:30;;;;;;;15.18;9.75;;;44.00;16.30;;;;;;5074126;28;20040;-64
2021/03/31 11:05:56;;;;;;;15.15;10.27;;;43.20;16.40;;;;;;5080557;28;20114;-64
2021/03/31 11:08:23;;;;;;;16.05;10.65;;;42.20;16.50;;;;;;5092483;28;20166;-64
2021/03/31 11:10:50;;;;;;;17.48;12.27;;;41.20;16.50;;;;;;5073696;28;20024;-68
2021/03/31 11:13:17;;;;;;;15.07;11.57;;;40.50;16.40;;;;;;5074293;28;20275;-66
2021/03/31 11:15:43;;;;;;;15.32;10.85;;;39.30;16.40;;;;;;5091577;28;20034;-66
2021/03/31 11:18:15;;;;;;;15.65;10.80;;;38.30;16.90;;;;;;5074228;28;20067;-66
2021/03/31 11:20:58;;;;;;;17.05;10.60;;;37.70;17.30;;;;;;5091993;28;20462;-66
2021/03/31 11:26:08;;;;;;;18.45;11.27;;;36.80;17.60;;;;;;5073889;28;20040;-66
2021/03/31 11:28:37;;;;;;;17.73;11.00;;;36.50;17.90;;;;;;5092203;28;20028;-66
2021/03/31 11:31:04;;;;;;;14.90;10.05;;;36.50;18.00;;;;;;5091540;28;20055;-66
2021/03/31 11:33:30;;;;;;;17.10;10.23;;;36.10;17.80;;;;;;5092202;28;20070;-66
2021/03/31 11:35:56;;;;;;;16.25;10.15;;;35.00;18.00;;;;;;5054034;28;20505;-66
2021/03/31 11:38:23;;;;;;;16.55;9.95;;;34.00;18.30;;;;;;5056843;28;20036;-69
2021/03/31 11:40:49;;;;;;;16.70;10.38;;;33.50;18.70;;;;;;5073220;28;20027;-69
2021/03/31 11:43:17;;;;;;;17.13;10.95;;;33.70;19.30;;;;;;5091869;28;20040;-68
2021/03/31 11:45:43;;;;;;;15.75;9.90;;;34.70;19.60;;;;;;5092965;28;20036;-68
2021/03/31 11:48:09;;;;;;;17.77;12.07;;;35.90;19.60;;;;;;5093314;28;20443;-69
2021/03/31 11:50:35;;;;;;;19.55;11.75;;;36.90;19.40;;;;;;5092292;28;20067;-68
2021/03/31 11:53:01;;;;;;;19.17;12.73;;;37.60;19.30;;;;;;5058037;28;20040;-67
2021/03/31 11:55:27;;;;;;;20.27;12.45;;;38.50;19.00;;;;;;5093171;28;20115;-66
2021/03/31 11:57:53;;;;;;;22.05;13.02;;;38.50;18.80;;;;;;5074340;28;20055;-69
2021/03/31 12:00:21;;;;;;;16.80;11.73;;;38.70;18.70;;;;;;5092473;28;20036;-66
2021/03/31 12:02:47;;;;;;;16.25;11.18;;;38.50;18.50;;;;;;5090819;28;20093;-65
2021/03/31 12:05:13;;;;;;;17.08;12.20;;;38.40;18.40;;;;;;5074893;28;20089;-70
2021/03/31 12:07:39;;;;;;;19.58;11.07;;;38.20;18.50;;;;;;5073647;28;20044;-67
2021/03/31 12:10:07;;;;;;;19.92;11.95;;;38.00;18.60;;;;;;5092434;28;20120;-67
2021/03/31 12:12:41;;;;;;;16.70;11.20;;;38.20;18.80;;;;;;5092783;28;20040;-66
2021/03/31 12:15:12;;;;;;;19.15;12.45;;;38.10;18.70;;;;;;5074102;28;20066;-67
2021/03/31 12:17:40;;;;;;;19.70;11.55;;;38.20;18.80;;;;;;5092857;28;20028;-67
2021/03/31 12:20:08;;;;;;;19.65;11.35;;;38.50;18.90;;;;;;5092171;28;20052;-67
2021/03/31 12:22:34;;;;;;;19.03;11.67;;;38.70;19.00;;;;;;5092416;28;20130;-67
2021/03/31 12:25:00;;;;;;;16.92;12.00;;;38.70;18.80;;;;;;5091817;28;20372;-67
2021/03/31 12:27:28;;;;;;;18.33;11.93;;;38.50;18.80;;;;;;5092440;28;20125;-67
2021/03/31 12:29:54;;;;;;;20.75;13.48;;;38.30;18.90;;;;;;5092452;28;20036;-66
2021/03/31 12:32:20;;;;;;;21.05;12.75;;;37.70;18.70;;;;;;5091758;28;20122;-66
2021/03/31 12:34:46;;;;;;;20.08;10.90;;;36.90;18.90;;;;;;5091810;28;20021;-66
2021/03/31 12:37:12;;;;;;;19.73;12.25;;;36.40;19.30;;;;;;5073454;28;20115;-66
2021/03/31 12:39:39;;;;;;;22.08;13.73;;;36.50;19.50;;;;;;5072536;28;20028;-66
2021/03/31 12:42:05;;;;;;;23.27;13.35;;;36.40;19.30;;;;;;5091771;28;20040;-66
2021/03/31 12:44:31;;;;;;;18.75;11.43;;;36.00;19.40;;;;;;5091668;28;20040;-66
2021/03/31 12:46:57;;;;;;;17.95;12.25;;;35.90;19.40;;;;;;5091787;28;20051;-66
2021/03/31 12:49:23;;;;;;;21.85;13.38;;;35.80;19.30;;;;;;5073226;28;20043;-66
2021/03/31 12:52:00;;;;;;;19.25;13.93;;;35.70;19.40;;;;;;5091547;28;20478;-66
2021/03/31 12:54:34;;;;;;;20.77;12.95;;;35.30;19.70;;;;;;5091629;28;20047;-66
2021/03/31 12:57:02;;;;;;;23.42;13.70;;;34.90;19.50;;;;;;5091545;28;20565;-66
2021/03/31 12:59:28;;;;;;;20.65;12.98;;;34.70;19.90;;;;;;5073815;28;20047;-66
2021/03/31 13:01:54;;;;;;;23.40;13.35;;;34.60;19.90;;;;;;5091418;28;20039;-66
2021/03/31 13:04:21;;;;;;;20.42;11.65;;;34.20;19.90;;;;;;5091956;28;20036;-66
2021/03/31 13:06:49;;;;;;;18.38;12.15;;;34.00;20.10;;;;;;5091740;28;20050;-66
2021/03/31 13:09:15;;;;;;;17.30;10.77;;;34.00;20.00;;;;;;5091362;28;20063;-65
2021/03/31 13:11:41;;;;;;;16.80;10.02;;;34.00;19.90;;;;;;5091571;28;20484;-65